Time;durP1;ratioP1;P1;durP2;ratioP2;P2;SDS_P1;SDS_P2;PMS_P1;PMS_P2;Temp;Humidity;BMP_temperature;BMP_pressure;BME280_temperature;BME280_humidity;BME280_pressure;Samples;Min_cycle;Max_cycle;Signal;HPM_P1;HPM_P2
2022/08/06 00:00:50;;;;;;;17.55;15.88;;;;;;;18.80;100.00;100839.74;1658938;85;21514;-92
2022/08/06 00:03:18;;;;;;;16.73;15.30;;;;;;;18.77;100.00;100840.91;1659139;85;21023;-91
2022/08/06 00:05:47;;;;;;;17.92;16.27;;;;;;;18.75;100.00;100842.87;1659006;85;21239;-91
2022/08/06 00:08:14;;;;;;;17.10;15.40;;;;;;;18.73;100.00;100843.05;1658955;85;21631;-92
2022/08/06 00:10:43;;;;;;;18.20;16.57;;;;;;;18.71;100.00;100838.89;1659254;85;21045;-91
2022/08/06 00:13:11;;;;;;;18.23;16.45;;;;;;;18.69;100.00;100835.11;1659102;85;21045;-93
2022/08/06 00:15:38;;;;;;;19.17;17.20;;;;;;;18.67;100.00;100827.84;1659103;85;21090;-94
2022/08/06 00:18:06;;;;;;;18.42;16.77;;;;;;;18.65;100.00;100835.59;1659285;85;21232;-94
2022/08/06 00:20:33;;;;;;;18.55;16.85;;;;;;;18.59;100.00;100819.45;1659021;85;21049;-94
2022/08/06 00:23:01;;;;;;;18.37;16.65;;;;;;;18.56;100.00;100822.41;1659330;85;21065;-92
2022/08/06 00:25:31;;;;;;;19.37;17.37;;;;;;;18.53;100.00;100822.74;1658051;85;20998;-93
2022/08/06 00:27:59;;;;;;;18.62;17.00;;;;;;;18.51;100.00;100819.95;1632228;86;21015;-91
2022/08/06 00:30:28;;;;;;;18.23;16.37;;;;;;;18.48;100.00;100826.34;1632058;86;21549;-92
2022/08/06 00:32:57;;;;;;;16.62;14.93;;;;;;;18.47;100.00;100825.20;1632181;86;21082;-91
2022/08/06 00:35:24;;;;;;;17.65;16.00;;;;;;;18.46;100.00;100823.06;1632394;87;21069;-91
2022/08/06 00:37:51;;;;;;;17.80;15.90;;;;;;;18.47;100.00;100827.83;1654084;85;21527;-92
2022/08/06 00:40:20;;;;;;;19.05;16.42;;;;;;;18.48;100.00;100820.26;1658931;85;21130;-91
2022/08/06 00:42:53;;;;;;;18.32;16.62;;;;;;;18.49;100.00;100826.68;1658304;85;21161;-92
2022/08/06 00:45:22;;;;;;;18.52;16.75;;;;;;;18.49;100.00;100837.23;1655423;85;21039;-91
2022/08/06 00:47:50;;;;;;;16.73;15.15;;;;;;;18.50;100.00;100832.28;1658771;85;21084;-92
2022/08/06 00:50:17;;;;;;;15.50;14.20;;;;;;;18.51;100.00;100836.58;1658609;85;21057;-94
2022/08/06 00:52:45;;;;;;;16.20;14.65;;;;;;;18.54;100.00;100842.02;1659062;85;21125;-95
2022/08/06 00:55:15;;;;;;;15.88;14.47;;;;;;;18.55;100.00;100844.48;1658945;85;21159;-91
2022/08/06 00:57:43;;;;;;;16.12;14.73;;;;;;;18.57;100.00;100839.88;1642084;86;21074;-92
2022/08/06 01:00:11;;;;;;;17.37;15.68;;;;;;;18.59;100.00;100837.91;1653798;85;21050;-92
2022/08/06 01:02:40;;;;;;;16.20;14.60;;;;;;;18.62;100.00;100836.75;1658975;85;21030;-91
2022/08/06 01:05:07;;;;;;;15.63;14.23;;;;;;;18.65;100.00;100838.23;1658946;85;21034;-93
2022/08/06 01:07:36;;;;;;;15.85;14.45;;;;;;;18.65;100.00;100842.19;1659388;85;21143;-92
2022/08/06 01:10:06;;;;;;;16.35;14.80;;;;;;;18.64;100.00;100847.13;1659013;85;21425;-91
2022/08/06 01:12:36;;;;;;;15.72;14.25;;;;;;;18.63;100.00;100844.19;1656136;85;21067;-91
2022/08/06 01:15:06;;;;;;;15.00;13.70;;;;;;;18.62;100.00;100845.98;1650118;85;20995;-91
2022/08/06 01:17:42;;;;;;;15.18;13.93;;;;;;;18.64;100.00;100849.30;1649822;86;21051;-95
2022/08/06 01:20:53;;;;;;;15.25;13.75;;;;;;;18.62;100.00;100845.98;1611923;87;21806;-91
2022/08/06 01:23:36;;;;;;;14.30;12.93;;;;;;;18.58;100.00;100849.95;1598394;88;21117;-91
2022/08/06 01:26:38;;;;;;;15.03;13.68;;;;;;;18.55;100.00;100849.75;1590638;89;21756;-91
2022/08/06 01:29:22;;;;;;;14.87;13.45;;;;;;;18.53;100.00;100841.68;1598488;89;21542;-91
2022/08/06 01:32:07;;;;;;;15.72;14.28;;;;;;;18.49;100.00;100845.64;1598074;89;21096;-92
2022/08/06 01:34:43;;;;;;;15.72;14.23;;;;;;;18.45;100.00;100845.14;1598543;89;21218;-91
2022/08/06 01:37:29;;;;;;;15.98;14.38;;;;;;;18.42;100.00;100840.18;1597202;89;21030;-91
2022/08/06 01:40:05;;;;;;;15.03;13.58;;;;;;;18.41;100.00;100839.84;1606333;89;21060;-91
2022/08/06 01:42:33;;;;;;;15.18;13.78;;;;;;;18.41;100.00;100841.16;1607693;88;21575;-92
2022/08/06 01:45:10;;;;;;;13.62;12.37;;;;;;;18.39;100.00;100844.45;1598237;89;21308;-91
2022/08/06 01:47:43;;;;;;;14.55;13.25;;;;;;;18.36;100.00;100840.33;1598523;88;21827;-92
2022/08/06 01:50:12;;;;;;;14.98;13.45;;;;;;;18.36;100.00;100848.73;1598387;89;21141;-92
2022/08/06 01:52:42;;;;;;;15.00;13.08;;;;;;;18.33;100.00;100849.89;1598562;88;21779;-92
2022/08/06 01:55:16;;;;;;;17.12;14.93;;;;;;;18.27;100.00;100851.35;1598408;89;21073;-92
2022/08/06 01:57:52;;;;;;;16.87;14.30;;;;;;;18.24;100.00;100852.16;1593719;89;21092;-91
2022/08/06 02:00:23;;;;;;;15.05;13.65;;;;;;;18.21;100.00;100855.11;1598947;88;21218;-91
2022/08/06 02:02:52;;;;;;;15.83;14.53;;;;;;;18.19;100.00;100851.80;1598567;88;21140;-92
2022/08/06 02:05:24;;;;;;;15.55;14.10;;;;;;;18.19;100.00;100847.84;1598269;88;21048;-91
2022/08/06 02:07:53;;;;;;;15.88;14.35;;;;;;;18.18;100.00;100847.03;1598229;89;21065;-91
2022/08/06 02:10:24;;;;;;;16.23;14.78;;;;;;;18.18;100.00;100847.03;1598490;89;21083;-91
2022/08/06 02:12:52;;;;;;;;;;;;;;;18.18;100.00;100848.86;1608155;87;21306;-92
2022/08/06 02:15:30;;;;;;;15.85;14.25;;;;;;;18.18;100.00;100854.13;1594945;90;20496;-91
2022/08/06 02:18:03;;;;;;;15.55;14.20;;;;;;;18.17;100.00;100846.70;1607337;88;21031;-91
2022/08/06 02:20:39;;;;;;;15.38;13.78;;;;;;;18.17;100.00;100850.65;1646245;86;21936;-91
2022/08/06 02:23:16;;;;;;;15.03;13.62;;;;;;;18.18;100.00;100843.59;1646304;86;21584;-90
2022/08/06 02:25:46;;;;;;;14.40;12.98;;;;;;;18.19;100.00;100844.73;1646422;87;21412;-92
2022/08/06 02:28:19;;;;;;;14.93;13.62;;;;;;;18.21;100.00;100849.36;1646356;87;21035;-92
2022/08/06 02:30:49;;;;;;;14.40;13.20;;;;;;;18.23;100.00;100850.00;1646196;87;21559;-92
2022/08/06 02:33:18;;;;;;;15.03;13.72;;;;;;;18.25;100.00;100849.87;1646208;87;21083;-91
2022/08/06 02:35:56;;;;;;;14.47;12.55;;;;;;;18.27;100.00;100855.30;1646242;87;21020;-91
2022/08/06 02:38:30;;;;;;;15.30;13.98;;;;;;;18.32;100.00;100859.26;1647378;86;21130;-92
2022/08/06 02:41:02;;;;;;;14.60;13.25;;;;;;;18.33;100.00;100855.16;1646338;87;21024;-91
2022/08/06 02:43:39;;;;;;;14.65;13.35;;;;;;;18.36;100.00;100864.55;1644455;86;21533;-91
2022/08/06 02:46:29;;;;;;;15.48;13.95;;;;;;;18.37;100.00;100859.11;1646445;87;21106;-91
2022/08/06 02:49:10;;;;;;;14.00;12.75;;;;;;;18.37;100.00;100864.89;1646044;86;21728;-93
2022/08/06 02:51:44;;;;;;;15.32;13.83;;;;;;;18.37;100.00;100863.58;1646255;86;21179;-92
2022/08/06 02:54:23;;;;;;;15.88;13.50;;;;;;;18.37;100.00;100864.39;1641648;87;21111;-94
2022/08/06 02:56:58;;;;;;;15.50;14.10;;;;;;;18.37;100.00;100866.21;1646155;86;21294;-91
2022/08/06 02:59:29;;;;;;;15.00;13.70;;;;;;;18.38;100.00;100862.59;1641634;87;21019;-93
2022/08/06 03:02:00;;;;;;;;;;;;;;;18.37;100.00;100853.03;1648677;87;21035;-91
2022/08/06 03:04:33;;;;;;;15.20;13.70;;;;;;;18.37;100.00;100853.03;1646465;86;21146;-91
2022/08/06 03:07:06;;;;;;;14.65;13.35;;;;;;;18.36;100.00;100857.46;1646499;87;21036;-91
2022/08/06 03:09:34;;;;;;;14.63;13.30;;;;;;;18.37;100.00;100856.48;1644852;86;21106;-91
2022/08/06 03:12:02;;;;;;;15.83;14.30;;;;;;;18.39;100.00;100857.15;1646706;87;21063;-94
2022/08/06 03:14:32;;;;;;;16.23;14.83;;;;;;;18.41;100.00;100860.94;1646514;86;21051;-92
2022/08/06 03:17:01;;;;;;;16.37;14.47;;;;;;;18.41;100.00;100858.30;1646835;87;21307;-93
2022/08/06 03:19:31;;;;;;;16.32;14.90;;;;;;;18.43;100.00;100857.66;1646606;86;21003;-91
2022/08/06 03:22:02;;;;;;;15.32;13.98;;;;;;;18.45;100.00;100854.37;1646705;87;21481;-92
2022/08/06 03:24:33;;;;;;;16.75;15.05;;;;;;;18.49;100.00;100856.19;1646691;87;21023;-91
2022/08/06 03:27:02;;;;;;;15.45;14.05;;;;;;;18.52;100.00;100855.38;1646664;86;20999;-91
2022/08/06 03:29:33;;;;;;;14.70;13.40;;;;;;;18.57;100.00;100866.24;1629595;87;21841;-92
2022/08/06 03:32:02;;;;;;;15.03;13.72;;;;;;;18.64;100.00;100868.23;1646365;87;21047;-92
2022/08/06 03:34:35;;;;;;;16.60;15.05;;;;;;;18.69;100.00;100868.08;1629716;88;21075;-91
2022/08/06 03:37:07;;;;;;;17.12;15.63;;;;;;;18.74;100.00;100869.75;1646563;87;21035;-91
2022/08/06 03:39:37;;;;;;;16.73;15.13;;;;;;;18.79;100.00;100871.88;1629930;88;21071;-91
2022/08/06 03:42:06;;;;;;;16.75;15.05;;;;;;;18.82;100.00;100868.92;1646619;87;21308;-92
2022/08/06 03:44:34;;;;;;;17.15;15.43;;;;;;;18.86;100.00;100874.22;1629447;87;21679;-91
2022/08/06 03:47:24;;;;;;;15.80;14.50;;;;;;;18.90;100.00;100871.56;1646495;86;21063;-94
2022/08/06 03:50:05;;;;;;;16.55;15.10;;;;;;;18.96;100.00;100871.92;1616674;88;21529;-90
2022/08/06 03:52:42;;;;;;;16.45;14.85;;;;;;;19.00;100.00;100870.11;1620136;88;20984;-90
2022/08/06 03:55:18;;;;;;;15.58;14.28;;;;;;;19.05;100.00;100870.46;1597649;88;21192;-91
2022/08/06 03:57:51;;;;;;;15.78;14.28;;;;;;;19.08;100.00;100870.62;1641678;87;21544;-90
2022/08/06 04:00:21;;;;;;;15.78;14.30;;;;;;;19.09;100.00;100870.95;1629618;88;21152;-91
2022/08/06 04:02:54;;;;;;;15.93;14.43;;;;;;;19.12;100.00;100867.16;1646823;87;21035;-91
2022/08/06 04:05:29;;;;;;;16.02;14.53;;;;;;;19.16;100.00;100867.98;1629412;87;21548;-92
2022/08/06 04:08:00;;;;;;;15.65;14.15;;;;;;;19.21;100.00;100863.02;1625922;85;21143;-92
2022/08/06 04:10:40;;;;;;;16.12;14.55;;;;;;;19.25;100.00;100860.87;1646306;85;21716;-92
2022/08/06 04:13:12;;;;;;;17.57;15.72;;;;;;;19.32;100.00;100862.35;1616924;87;21037;-91
2022/08/06 04:15:42;;;;;;;16.10;14.70;;;;;;;19.37;100.00;100858.23;1633746;86;21022;-90
2022/08/06 04:18:14;;;;;;;17.52;15.95;;;;;;;19.44;100.00;100866.28;1633185;85;21118;-91
2022/08/06 04:20:48;;;;;;;17.48;15.88;;;;;;;19.48;100.00;100861.02;1631392;86;21179;-91
2022/08/06 04:23:15;;;;;;;17.70;16.10;;;;;;;19.54;100.00;100864.30;1631262;86;21135;-91
2022/08/06 04:25:49;;;;;;;17.30;15.80;;;;;;;19.59;100.00;100865.11;1629783;86;21057;-90
2022/08/06 04:28:20;;;;;;;18.30;16.52;;;;;;;19.64;100.00;100861.45;1613807;87;21084;-90
2022/08/06 04:30:49;;;;;;;17.90;16.20;;;;;;;19.69;100.00;100853.86;1642199;85;21071;-91
2022/08/06 04:33:22;;;;;;;17.15;15.55;;;;;;;19.75;100.00;100857.63;1647190;86;21129;-92
2022/08/06 04:35:49;;;;;;;17.48;15.93;;;;;;;19.80;100.00;100860.59;1653276;86;21046;-92
2022/08/06 04:38:22;;;;;;;16.97;15.58;;;;;;;19.83;100.00;100858.91;1658518;86;21030;-92
2022/08/06 04:40:49;;;;;;;18.15;16.40;;;;;;;19.90;100.00;100857.78;1658668;85;21637;-92
2022/08/06 04:43:17;;;;;;;18.40;16.27;;;;;;;19.98;100.00;100863.03;1658322;86;21595;-91
2022/08/06 04:45:46;;;;;;;18.02;16.45;;;;;;;20.07;100.00;100868.28;1658448;85;21316;-91
2022/08/06 04:48:17;;;;;;;18.15;16.42;;;;;;;20.14;100.00;100867.92;1658706;85;21079;-91
2022/08/06 04:50:44;;;;;;;17.80;16.30;;;;;;;20.23;100.00;100875.33;1658937;85;21554;-91
2022/08/06 04:53:15;;;;;;;18.48;15.88;;;;;;;20.33;100.00;100867.98;1658724;85;21117;-91
2022/08/06 04:55:44;;;;;;;19.42;17.35;;;;;;;20.43;100.00;100871.76;1658206;85;21026;-91
2022/08/06 04:58:16;;;;;;;17.95;16.37;;;;;;;20.53;100.00;100872.84;1658439;85;21791;-92
2022/08/06 05:00:47;;;;;;;18.00;16.40;;;;;;;20.62;100.00;100867.32;1659141;85;21034;-91
2022/08/06 05:03:17;;;;;;;17.50;15.70;;;;;;;20.74;100.00;100879.67;1658749;85;21512;-91
2022/08/06 05:06:14;;;;;;;17.77;16.23;;;;;;;20.85;100.00;100873.66;1658963;85;21829;-91
2022/08/06 05:08:44;;;;;;;16.93;15.45;;;;;;;20.95;100.00;100867.63;1658623;85;21054;-91
2022/08/06 05:11:28;;;;;;;17.50;15.68;;;;;;;21.07;100.00;100861.41;1658708;85;21819;-92
2022/08/06 05:14:03;;;;;;;16.82;15.23;;;;;;;21.18;100.00;100861.48;1652972;85;21524;-92
2022/08/06 05:16:36;;;;;;;17.32;15.72;;;;;;;21.32;100.00;100865.97;1650079;85;21062;-92
2022/08/06 05:19:09;;;;;;;17.07;15.38;;;;;;;21.42;100.00;100865.22;1593575;88;21539;-92
2022/08/06 05:21:41;;;;;;;16.60;15.08;;;;;;;21.53;100.00;100870.57;1596884;88;21014;-92
2022/08/06 05:24:09;;;;;;;15.40;14.10;;;;;;;21.65;100.00;100867.00;1605454;87;21274;-93
2022/08/06 05:26:39;;;;;;;15.15;13.68;;;;;;;21.76;100.00;100873.66;1628205;85;21003;-92
2022/08/06 05:29:10;;;;;;;15.68;14.20;;;;;;;21.86;100.00;100874.70;1603514;88;21122;-92
2022/08/06 05:31:41;;;;;;;16.80;15.15;;;;;;;21.93;100.00;100865.00;1602823;87;21135;-92
2022/08/06 05:34:15;;;;;;;18.65;16.25;;;;;;;22.00;100.00;100861.93;1598422;89;21160;-93
2022/08/06 05:36:44;;;;;;;16.82;15.23;;;;;;;22.08;100.00;100862.83;1598269;88;21179;-93
2022/08/06 05:39:14;;;;;;;16.55;15.08;;;;;;;22.19;100.00;100855.73;1598020;89;21136;-93
2022/08/06 05:41:42;;;;;;;16.90;15.40;;;;;;;22.28;100.00;100850.64;1598123;88;21072;-93
2022/08/06 05:44:13;;;;;;;15.58;14.28;;;;;;;22.40;100.00;100853.66;1597996;88;21008;-93
2022/08/06 05:46:52;;;;;;;16.27;14.78;;;;;;;22.51;100.00;100854.98;1598187;89;21076;-92
2022/08/06 05:49:29;;;;;;;14.90;13.60;;;;;;;22.62;100.00;100853.17;1596960;88;21161;-93
2022/08/06 05:52:04;;;;;;;15.40;14.07;;;;;;;22.69;100.00;100852.73;1598727;88;21052;-92
2022/08/06 05:55:06;;;;;;;15.30;13.88;;;;;;;22.77;100.00;100857.07;1613563;87;21061;-94
2022/08/06 05:57:41;;;;;;;16.48;15.03;;;;;;;22.84;100.00;100846.52;1619764;87;21091;-93
2022/08/06 06:00:13;;;;;;;15.48;14.00;;;;;;;22.92;100.00;100850.86;1648999;85;21026;-93
2022/08/06 06:02:46;;;;;;;15.08;12.47;;;;;;;22.99;100.00;100843.28;1649724;87;21283;-94
2022/08/06 06:05:15;;;;;;;15.78;12.98;;;;;;;23.08;100.00;100833.84;1649606;85;21687;-94
2022/08/06 06:07:44;;;;;;;14.47;13.18;;;;;;;23.15;100.00;100838.17;1650410;85;21121;-94
2022/08/06 06:10:13;;;;;;;14.18;12.98;;;;;;;23.24;100.00;100838.90;1637662;85;21133;-94
2022/08/06 06:12:45;;;;;;;14.75;12.75;;;;;;;23.33;100.00;100830.26;1638641;87;21015;-94
2022/08/06 06:15:14;;;;;;;12.93;11.83;;;;;;;23.42;100.00;100832.27;1635956;87;21261;-94
2022/08/06 06:18:09;;;;;;;14.40;12.65;;;;;;;23.54;100.00;100839.19;1649350;86;21146;-94
2022/08/06 06:20:55;;;;;;;12.85;11.65;;;;;;;23.67;100.00;100835.78;1621435;87;20980;-94
2022/08/06 06:23:46;;;;;;;13.90;11.97;;;;;;;23.77;100.00;100832.23;1621215;87;21531;-96
2022/08/06 06:26:25;;;;;;;13.53;11.78;;;;;;;23.83;100.00;100831.47;1623716;87;21035;-94
2022/08/06 06:29:19;;;;;;;13.48;12.20;;;;;;;23.89;100.00;100835.98;1627428;86;21223;-91
2022/08/06 06:32:29;;;;;;;13.83;12.50;;;;;;;23.98;100.00;100835.84;1587751;88;21035;-95
2022/08/06 06:35:07;;;;;;;13.03;11.93;;;;;;;24.04;100.00;100836.37;1622067;87;20995;-94
2022/08/06 06:37:46;;;;;;;13.32;12.25;;;;;;;24.12;100.00;100834.05;1605709;87;21047;-95
2022/08/06 06:40:59;;;;;;;13.70;12.50;;;;;;;24.16;100.00;100829.44;1634479;87;21035;-94
2022/08/06 06:43:48;;;;;;;13.60;12.30;;;;;;;24.25;100.00;100841.54;1637764;87;22115;-93
2022/08/06 06:46:35;;;;;;;14.07;12.68;;;;;;;24.39;100.00;100830.95;1630364;87;21070;-94
2022/08/06 06:49:22;;;;;;;13.30;11.97;;;;;;;24.45;100.00;100830.13;1644950;85;21068;-94
2022/08/06 06:51:58;;;;;;;14.18;11.45;;;;;;;24.53;100.00;100831.27;1647272;86;21446;-92
2022/08/06 06:54:37;;;;;;;17.00;12.03;;;;;;;24.63;100.00;100835.38;1646089;86;21082;-95
2022/08/06 06:57:07;;;;;;;13.28;12.13;;;;;;;24.73;100.00;100831.81;1650271;85;21211;-93
2022/08/06 06:59:38;;;;;;;14.70;12.73;;;;;;;24.79;100.00;100830.19;1650990;86;21062;-95
2022/08/06 07:02:10;;;;;;;14.80;12.33;;;;;;;24.84;100.00;100825.89;1593625;88;21204;-94
2022/08/06 07:04:42;;;;;;;13.68;12.37;;;;;;;24.88;100.00;100822.30;1624580;86;21114;-94
2022/08/06 07:07:09;;;;;;;14.00;12.60;;;;;;;24.90;100.00;100824.25;1641712;85;22074;-95
2022/08/06 07:09:43;;;;;;;14.05;12.05;;;;;;;24.95;100.00;100819.64;1641314;85;21790;-94
2022/08/06 07:12:15;;;;;;;13.40;12.07;;;;;;;24.99;100.00;100811.53;1612518;87;21079;-92
2022/08/06 07:14:47;;;;;;;13.58;12.10;;;;;;;25.05;100.00;100818.69;1646075;85;21110;-95
2022/08/06 07:17:33;;;;;;;14.20;12.73;;;;;;;25.12;100.00;100814.17;1645723;85;21058;-94
2022/08/06 07:20:08;;;;;;;14.93;12.58;;;;;;;25.20;100.00;100813.95;1644626;85;21035;-95
2022/08/06 07:22:41;;;;;;;14.87;12.82;;;;;;;25.32;100.00;100815.47;1619430;87;22260;-96
2022/08/06 07:25:22;;;;;;;16.97;15.10;;;;;;;25.42;100.00;100823.08;1644542;85;21035;-95
2022/08/06 07:27:52;;;;;;;13.60;12.40;;;;;;;25.51;100.00;100821.83;1623609;87;21115;-94
2022/08/06 07:30:21;;;;;;;13.83;12.53;;;;;;;25.65;100.00;100823.11;1638129;87;21093;-93
2022/08/06 07:32:49;;;;;;;12.78;11.48;;;;;;;25.74;100.00;100822.34;1618079;87;21105;-94
2022/08/06 07:35:20;;;;;;;14.30;12.93;;;;;;;25.84;100.00;100826.72;1608203;86;21251;-93
2022/08/06 07:37:53;;;;;;;14.38;12.90;;;;;;;25.90;100.00;100813.87;1661110;85;21019;-96
2022/08/06 07:40:39;;;;;;;14.98;13.03;;;;;;;26.03;100.00;100816.18;1612926;87;21086;-96
2022/08/06 07:43:27;;;;;;;14.43;12.95;;;;;;;26.12;100.00;100811.73;1645992;85;22192;-95
2022/08/06 07:45:56;;;;;;;14.68;13.15;;;;;;;26.20;100.00;100817.32;1607811;87;21076;-96
2022/08/06 07:48:35;;;;;;;15.13;13.15;;;;;;;26.29;100.00;100818.70;1626964;86;21268;-95
2022/08/06 07:51:04;;;;;;;13.80;12.58;;;;;;;26.36;100.00;100820.54;1622126;87;21641;-95
2022/08/06 07:53:35;;;;;;;16.10;13.18;;;;;;;26.41;100.00;100814.83;1617701;87;21085;-94
2022/08/06 07:56:05;;;;;;;16.10;14.07;;;;;;;26.47;100.00;100813.16;1613197;87;21583;-95
2022/08/06 07:58:35;;;;;;;15.10;13.60;;;;;;;26.57;100.00;100819.34;1594278;88;21117;-95
2022/08/06 08:01:05;;;;;;;15.93;13.83;;;;;;;26.70;100.00;100815.25;1618207;87;21164;-96
2022/08/06 08:06:23;;;;;;;14.40;12.95;;;;;;;26.83;100.00;100809.02;1664627;85;21136;-95
2022/08/06 08:09:03;;;;;;;14.95;13.55;;;;;;;26.84;100.00;100807.95;1620211;87;21082;-92
2022/08/06 08:11:32;;;;;;;14.50;13.00;;;;;;;26.84;100.00;100811.95;1630246;87;21349;-94
2022/08/06 08:14:03;;;;;;;14.60;13.22;;;;;;;26.87;100.00;100808.05;1649981;85;21921;-93
2022/08/06 08:16:33;;;;;;;15.65;14.18;;;;;;;26.92;100.00;100806.34;1600003;88;21530;-95
2022/08/06 08:19:32;;;;;;;15.45;13.83;;;;;;;26.95;100.00;100806.44;1658228;86;21056;-89
2022/08/06 08:26:19;;;;;;;14.15;12.85;;;;;;;27.05;100.00;100798.72;1658750;85;20994;-87
2022/08/06 08:28:51;;;;;;;15.45;12.95;;;;;;;27.26;100.00;100804.69;1658216;86;21146;-86
2022/08/06 08:31:26;;;;;;;14.50;13.20;;;;;;;27.42;100.00;100799.28;1658199;85;21432;-87
2022/08/06 08:35:02;;;;;;;15.05;12.73;;;;;;;27.52;100.00;100801.45;1658326;86;21005;-88
2022/08/06 08:37:31;;;;;;;14.35;13.05;;;;;;;27.62;100.00;100798.25;1655159;86;21493;-86
2022/08/06 08:41:01;;;;;;;14.53;13.20;;;;;;;27.78;100.00;100794.13;1635955;86;21141;-87
2022/08/06 08:43:42;;;;;;;15.00;13.40;;;;;;;27.88;100.00;100791.73;1634163;86;21167;-88
2022/08/06 08:46:17;;;;;;;14.70;13.25;;;;;;;27.98;100.00;100799.20;1664754;85;20962;-88
2022/08/06 08:48:54;;;;;;;14.58;13.18;;;;;;;28.01;100.00;100806.25;1683387;83;21101;-90
2022/08/06 08:51:27;;;;;;;14.63;13.28;;;;;;;28.07;100.00;100802.42;1635752;86;21543;-87
2022/08/06 08:54:00;;;;;;;14.28;12.98;;;;;;;28.08;100.00;100802.19;1646112;86;21118;-88
2022/08/06 08:56:32;;;;;;;15.25;13.68;;;;;;;28.09;100.00;100801.15;1643705;86;21984;-87
2022/08/06 08:59:02;;;;;;;15.28;13.80;;;;;;;28.10;100.00;100804.62;1653448;86;21560;-88
2022/08/06 09:01:41;;;;;;;15.28;13.72;;;;;;;28.13;100.00;100800.17;1629498;86;21101;-86
2022/08/06 09:04:11;;;;;;;14.20;12.90;;;;;;;28.16;100.00;100799.19;1637344;86;21054;-87
2022/08/06 09:06:54;;;;;;;15.35;13.98;;;;;;;28.22;100.00;100809.52;1658911;86;21121;-88
2022/08/06 09:09:23;;;;;;;15.58;13.55;;;;;;;28.27;100.00;100806.95;1659775;86;21251;-87
2022/08/06 09:11:52;;;;;;;14.90;13.60;;;;;;;28.34;100.00;100802.84;1648783;86;21027;-87
2022/08/06 09:14:23;;;;;;;12.65;11.53;;;;;;;28.37;100.00;100801.56;1643323;85;21089;-87
2022/08/06 09:16:51;;;;;;;14.33;13.13;;;;;;;28.46;100.00;100802.87;1651625;85;21026;-90
2022/08/06 09:19:18;;;;;;;14.65;12.40;;;;;;;28.52;100.00;100805.95;1651370;86;21607;-87
2022/08/06 09:21:52;;;;;;;15.45;13.22;;;;;;;28.55;100.00;100808.19;1641101;86;21801;-88
2022/08/06 09:25:03;;;;;;;15.25;12.63;;;;;;;28.65;100.00;100804.39;1613522;88;21002;-87
2022/08/06 09:27:35;;;;;;;;;;;;;;;28.74;100.00;100798.22;1657950;86;21093;-88
2022/08/06 09:30:07;;;;;;;14.78;13.32;;;;;;;28.83;100.00;100795.19;1645605;86;20239;-87
2022/08/06 09:32:45;;;;;;;15.13;13.45;;;;;;;28.91;100.00;100803.69;1622811;88;21058;-87
2022/08/06 09:35:32;;;;;;;14.35;12.40;;;;;;;28.94;100.00;100799.20;1622838;88;21659;-87
2022/08/06 09:38:29;;;;;;;13.62;12.43;;;;;;;28.91;100.00;100799.66;1622933;88;21548;-87
2022/08/06 09:44:52;;;;;;;14.07;12.73;;;;;;;28.97;100.00;100807.30;1622925;88;21110;-88
2022/08/06 09:47:22;;;;;;;14.03;12.63;;;;;;;28.98;100.00;100804.08;1621409;88;21065;-87
2022/08/06 09:49:55;;;;;;;15.13;12.60;;;;;;;28.93;100.00;100809.63;1622935;88;21251;-88
2022/08/06 09:52:25;;;;;;;13.88;12.47;;;;;;;28.87;100.00;100808.40;1623061;88;21086;-87
2022/08/06 09:54:52;;;;;;;13.40;12.07;;;;;;;28.81;100.00;100807.46;1622838;88;21105;-87
2022/08/06 09:58:00;;;;;;;14.78;12.93;;;;;;;28.87;100.00;100802.53;1622987;87;21105;-88
2022/08/06 10:01:16;;;;;;;14.78;12.73;;;;;;;29.07;100.00;100808.88;1622985;88;21377;-88
2022/08/06 10:03:44;;;;;;;14.20;12.75;;;;;;;29.32;100.00;100812.36;1623084;88;21098;-88
2022/08/06 10:06:22;;;;;;;18.15;13.55;;;;;;;29.49;100.00;100813.26;1622842;88;20991;-89
2022/08/06 10:08:54;;;;;;;19.55;13.38;;;;;;;29.61;100.00;100820.44;1621975;87;21002;-89
2022/08/06 10:11:41;;;;;;;15.93;14.30;;;;;;;29.64;100.00;100824.83;1620014;87;21563;-89
2022/08/06 10:14:37;;;;;;;14.98;13.53;;;;;;;29.68;100.00;100823.83;1622553;87;21054;-89
2022/08/06 10:17:20;;;;;;;16.90;14.15;;;;;;;29.72;100.00;100820.94;1623032;88;21834;-87
2022/08/06 10:20:10;;;;;;;17.82;13.38;;;;;;;29.72;100.00;100820.94;1610082;89;21621;-88
2022/08/06 10:22:51;;;;;;;18.42;12.35;;;;;;;29.60;100.00;100823.66;1610080;88;21473;-87
2022/08/06 10:25:29;;;;;;;12.93;11.80;;;;;;;29.70;100.00;100810.97;1608052;87;21047;-89
2022/08/06 10:27:59;;;;;;;12.73;11.53;;;;;;;29.70;100.00;100810.97;1606558;89;21578;-87
2022/08/06 10:30:54;;;;;;;12.33;11.20;;;;;;;29.85;100.00;100815.83;1610266;89;21827;-87
2022/08/06 10:33:25;;;;;;;12.82;11.63;;;;;;;29.94;100.00;100814.93;1610089;87;21121;-87
2022/08/06 10:35:57;;;;;;;12.82;11.70;;;;;;;29.92;100.00;100821.09;1609977;89;21090;-87
2022/08/06 10:38:27;;;;;;;13.58;12.05;;;;;;;29.91;100.00;100814.86;1606791;89;21057;-90
2022/08/06 10:40:58;;;;;;;11.63;10.63;;;;;;;29.99;100.00;100817.73;1609821;87;21576;-92
2022/08/06 10:43:27;;;;;;;14.33;12.93;;;;;;;30.05;100.00;100810.05;1609999;87;21159;-91
2022/08/06 10:45:56;;;;;;;12.88;11.60;;;;;;;30.12;100.00;100808.56;1609369;87;21062;-92
2022/08/06 10:48:25;;;;;;;13.62;11.50;;;;;;;30.18;100.00;100811.08;1609772;87;21128;-90
2022/08/06 10:50:53;;;;;;;13.80;12.63;;;;;;;30.26;100.00;100814.42;1636183;85;21056;-90
2022/08/06 10:53:21;;;;;;;12.82;11.53;;;;;;;30.21;100.00;100808.44;1657807;86;21848;-90
2022/08/06 10:55:49;;;;;;;10.85;9.80;;;;;;;30.24;100.00;100808.50;1629863;88;21173;-90
2022/08/06 10:58:18;;;;;;;11.57;10.48;;;;;;;30.33;100.00;100805.67;1657438;85;21035;-92
2022/08/06 11:00:48;;;;;;;12.07;11.08;;;;;;;30.41;100.00;100811.19;1629671;88;21939;-92
2022/08/06 11:03:32;;;;;;;10.48;9.48;;;;;;;30.38;100.00;100805.23;1657703;86;21121;-92
2022/08/06 11:06:28;;;;;;;11.35;10.38;;;;;;;30.41;100.00;100803.93;1636779;86;21096;-93
2022/08/06 11:09:36;;;;;;;10.75;9.85;;;;;;;30.50;97.80;100810.53;1627236;86;21170;-91
2022/08/06 11:12:14;;;;;;;10.08;9.08;;;;;;;30.48;95.54;100811.84;1578100;89;21670;-93
2022/08/06 11:14:43;;;;;;;9.48;8.58;;;;;;;30.45;94.55;100809.12;1597704;87;21079;-91
2022/08/06 11:17:12;;;;;;;10.55;9.00;;;;;;;30.46;95.20;100813.44;1652395;85;21025;-90
2022/08/06 11:19:47;;;;;;;10.23;9.13;;;;;;;30.47;89.33;100808.86;1649602;85;36586;-91
2022/08/06 11:22:37;;;;;;;9.05;8.25;;;;;;;30.50;99.56;100802.47;1649514;87;21139;-92
2022/08/06 11:25:10;;;;;;;9.28;8.48;;;;;;;30.59;97.10;100809.64;1649396;85;21033;-92
2022/08/06 11:28:01;;;;;;;8.80;8.00;;;;;;;30.65;96.47;100811.86;1649423;85;21133;-90
2022/08/06 11:30:44;;;;;;;9.73;8.68;;;;;;;30.68;93.83;100812.72;1649769;85;21552;-92
2022/08/06 11:33:14;;;;;;;11.78;8.45;;;;;;;30.72;96.31;100811.19;1647898;85;21114;-90
2022/08/06 11:35:45;;;;;;;9.07;8.27;;;;;;;30.80;96.26;100800.53;1648524;87;21096;-90
2022/08/06 11:38:36;;;;;;;9.10;8.40;;;;;;;30.88;91.54;100804.14;1640324;87;21078;-93
2022/08/06 11:41:16;;;;;;;9.15;8.10;;;;;;;30.94;99.97;100801.80;1629911;87;21070;-92
2022/08/06 11:43:56;;;;;;;9.48;8.33;;;;;;;31.02;92.30;100796.55;1616880;87;21656;-91
2022/08/06 11:46:38;;;;;;;9.33;8.25;;;;;;;31.08;100.00;100798.78;1612000;87;21122;-91
2022/08/06 11:49:16;;;;;;;8.75;7.60;;;;;;;31.14;100.00;100799.95;1598053;88;21178;-92
2022/08/06 11:51:58;;;;;;;9.15;8.35;;;;;;;31.27;100.00;100796.09;1597878;89;21113;-92